CSS Virginia — WDC3185 — position and weather

sailwx.info

Track history (hours):
 
Tides and Currents Weather Stations Pressure Air Temp Water Temp Dewpoint Dewpoint Depression Visibility Wind Speed Wind Dir Waves Ship Positions

CSS Virginia

Owner: Carline Companies Inc. 1414 N Burnside Ave Ste C PMB 16 Gonzales, LA 70737 225-473-4310 225-473-4386 fax, GONZALES, LA. More information available from US FCC via Universal Licensing System and Coast Guard Vessel Documentation Center.

Last reported at 2018-May-18 11:43 UTC. Time now 2018-May-20 15:32 UTC.
Position N 30°12' W 091°01'.

Length 22 m; draft 3 m.

Type: Towing. MMSI: 367003630.

Date/timePositionNaut miles runAvg speedWind from/ knotsBaromVisibWave heightAir tempDewpointWater temp
2018-May-18 11:43N 30°12' W 091°01'0 0.0
2018-May-18 11:30N 30°12' W 091°01'0 0.0
2018-May-18 10:23N 30°12' W 091°01'0 0.0
2018-May-18 09:51N 30°12' W 091°01'0 0.0
2018-May-18 09:29N 30°12' W 091°01'0 0.0
2018-May-18 08:51N 30°12' W 091°01'2 0.1
2018-May-17 11:50N 30°10' W 091°00'1 2.5
2018-May-17 11:28N 30°11' W 091°01'3 6.3
2018-May-17 11:00N 30°13' W 091°03'0 0.0
2018-May-17 10:30N 30°13' W 091°03'0 0.0
2018-May-17 08:53N 30°13' W 091°03'0 0.0
2018-May-17 08:30N 30°13' W 091°03'0 0.0
2018-May-17 07:06N 30°13' W 091°03'0 0.0
2018-May-17 06:57N 30°13' W 091°03'0 0.0
2018-May-17 06:30N 30°13' W 091°03'0 0.0
2018-May-17 05:53N 30°13' W 091°03'  
2018-May-14 11:53N 30°14' W 091°08'  
2018-May-09 09:00N 30°17' W 091°09'0 0.0
2018-May-09 08:30N 30°17' W 091°09'0 0.0
2018-May-09 05:53N 30°17' W 091°09'0 0.2
2018-May-09 05:25N 30°17' W 091°09'10 0.6
2018-May-08 13:40N 30°11' W 091°00'1 4.6
2018-May-08 13:30N 30°10' W 090°60'0 0.8
2018-May-08 12:56N 30°10' W 091°00'0 0.0
2018-May-08 12:30N 30°10' W 091°00'  
Track history (hours):
 
Tides and Currents Weather Stations Pressure Air Temp Water Temp Dewpoint Dewpoint Depression Visibility Wind Speed Wind Dir Waves Ship Positions

CSS Virginia

Owner: Carline Companies Inc. 1414 N Burnside Ave Ste C PMB 16 Gonzales, LA 70737 225-473-4310 225-473-4386 fax, GONZALES, LA. More information available from US FCC via Universal Licensing System and Coast Guard Vessel Documentation Center.

Last reported at 2018-May-18 11:43 UTC. Time now 2018-May-20 15:32 UTC.
Position N 30°12' W 091°01'.

Length 22 m; draft 3 m.

Type: Towing. MMSI: 367003630.

Date/timePositionNaut miles runAvg speedWind from/ knotsBaromVisibWave heightAir tempDewpointWater temp
2018-May-18 11:43N 30°12' W 091°01'0 0.0
2018-May-18 11:30N 30°12' W 091°01'0 0.0
2018-May-18 10:23N 30°12' W 091°01'0 0.0
2018-May-18 09:51N 30°12' W 091°01'0 0.0
2018-May-18 09:29N 30°12' W 091°01'0 0.0
2018-May-18 08:51N 30°12' W 091°01'2 0.1
2018-May-17 11:50N 30°10' W 091°00'1 2.5
2018-May-17 11:28N 30°11' W 091°01'3 6.3
2018-May-17 11:00N 30°13' W 091°03'0 0.0
2018-May-17 10:30N 30°13' W 091°03'0 0.0
2018-May-17 08:53N 30°13' W 091°03'0 0.0
2018-May-17 08:30N 30°13' W 091°03'0 0.0
2018-May-17 07:06N 30°13' W 091°03'0 0.0
2018-May-17 06:57N 30°13' W 091°03'0 0.0
2018-May-17 06:30N 30°13' W 091°03'0 0.0
2018-May-17 05:53N 30°13' W 091°03'  
2018-May-14 11:53N 30°14' W 091°08'  
2018-May-09 09:00N 30°17' W 091°09'0 0.0
2018-May-09 08:30N 30°17' W 091°09'0 0.0
2018-May-09 05:53N 30°17' W 091°09'0 0.2
2018-May-09 05:25N 30°17' W 091°09'10 0.6
2018-May-08 13:40N 30°11' W 091°00'1 4.6
2018-May-08 13:30N 30°10' W 090°60'0 0.8
2018-May-08 12:56N 30°10' W 091°00'0 0.0
2018-May-08 12:30N 30°10' W 091°00'  

Dump ship's entire track history